createdAt,value
2022-09-15T00:04:34.535Z,101424.59
2022-09-15T00:09:37.687Z,101428.81
2022-09-15T00:14:40.630Z,101421.97
2022-09-15T00:19:43.368Z,101430.72
2022-09-15T00:24:49.625Z,101412.50
2022-09-15T00:29:52.667Z,101436.91
2022-09-15T00:34:55.486Z,101439.59
2022-09-15T00:39:58.330Z,101448.38
2022-09-15T00:45:03.230Z,101449.47
2022-09-15T00:50:15.130Z,101457.44
2022-09-15T00:55:23.477Z,101458.28
2022-09-15T01:00:30.774Z,101453.19
2022-09-15T01:05:38.999Z,101454.09
2022-09-15T01:10:42.022Z,101467.13
2022-09-15T01:16:08.042Z,101464.75
2022-09-15T01:21:17.904Z,101469.13
2022-09-15T01:26:46.938Z,101471.09
2022-09-15T01:32:28.447Z,101466.59
2022-09-15T01:37:36.496Z,101458.75
2022-09-15T01:42:40.444Z,101469.56
2022-09-15T01:47:43.731Z,101457.91
2022-09-15T01:52:49.384Z,101463.81
2022-09-15T01:57:52.166Z,101459.84
2022-09-15T02:03:01.674Z,101452.25
2022-09-15T02:08:10.686Z,101452.69
2022-09-15T02:13:19.678Z,101466.38
2022-09-15T02:18:35.127Z,101472.47
2022-09-15T02:23:43.859Z,101459.88
2022-09-15T02:28:48.182Z,101473.66
2022-09-15T02:34:15.606Z,101473.25
2022-09-15T02:39:19.953Z,101469.81
2022-09-15T02:44:23.818Z,101472.28
2022-09-15T02:49:26.668Z,101485.22
2022-09-15T02:54:29.459Z,101489.53
2022-09-15T02:59:52.193Z,101472.03
2022-09-15T03:04:57.912Z,101481.94
2022-09-15T03:10:00.772Z,101489.41
2022-09-15T03:15:03.629Z,101496.84
2022-09-15T03:20:08.401Z,101505.78
2022-09-15T03:25:11.747Z,101506.84
2022-09-15T03:30:14.830Z,101505.72
2022-09-15T03:35:17.664Z,101506.47
2022-09-15T03:40:20.677Z,101500.53
2022-09-15T03:45:23.405Z,101514.81
2022-09-15T03:50:26.155Z,101502.31
2022-09-15T03:55:31.516Z,101490.13
2022-09-15T04:00:34.663Z,101495.38
2022-09-15T04:05:37.777Z,101507.63
2022-09-15T04:10:41.350Z,101503.16
2022-09-15T04:15:44.998Z,101509.78
2022-09-15T04:20:47.711Z,101499.66
2022-09-15T04:25:58.726Z,101497.59
2022-09-15T04:31:12.213Z,101494.84
2022-09-15T04:36:19.811Z,101488.78
2022-09-15T04:41:23.196Z,101490.13
2022-09-15T04:46:26.228Z,101489.06
2022-09-15T04:51:29.336Z,101486.53
2022-09-15T04:56:32.095Z,101477.94
2022-09-15T05:01:35.722Z,101487.34
2022-09-15T05:06:39.297Z,101489.41
2022-09-15T05:11:42.187Z,101486.03
2022-09-15T05:16:44.900Z,101484.81
2022-09-15T05:21:47.623Z,101492.44
2022-09-15T05:26:50.350Z,101473.53
2022-09-15T05:31:53.169Z,101474.56
2022-09-15T05:36:55.826Z,101482.06
2022-09-15T05:41:58.568Z,101474.84
2022-09-15T05:47:01.635Z,101454.59
2022-09-15T05:52:05.186Z,101464.34
2022-09-15T05:57:07.985Z,101465.06
2022-09-15T06:02:12.083Z,101460.44
2022-09-15T06:07:14.985Z,101437.63
2022-09-15T06:12:18.770Z,101441.78
2022-09-15T06:17:23.523Z,101441.84
2022-09-15T06:22:26.308Z,101432.13
2022-09-15T06:27:29.092Z,101415.38
2022-09-15T06:32:31.896Z,101400.97
2022-09-15T06:37:35.379Z,101406.19
2022-09-15T06:42:38.138Z,101406.91
2022-09-15T06:47:40.784Z,101399.63
2022-09-15T06:52:43.987Z,101403.69
2022-09-15T06:57:46.668Z,101398.75
2022-09-15T07:02:50.446Z,101395.81
2022-09-15T07:07:53.404Z,101405.97
2022-09-15T07:12:56.194Z,101404.16
2022-09-15T07:17:59.819Z,101400.03
2022-09-15T07:23:02.538Z,101392.00
2022-09-15T07:28:05.367Z,101407.28
2022-09-15T07:33:09.533Z,101397.31
2022-09-15T07:38:12.262Z,101392.81
2022-09-15T07:43:15.179Z,101395.41
2022-09-15T07:48:17.835Z,101401.47
2022-09-15T07:53:21.131Z,101380.69
2022-09-15T07:58:24.258Z,101390.59
2022-09-15T08:03:27.001Z,101380.84
2022-09-15T08:08:30.411Z,101385.34
2022-09-15T08:13:33.089Z,101389.25
2022-09-15T08:18:36.457Z,101380.00
2022-09-15T08:23:39.126Z,101366.59
2022-09-15T08:28:42.609Z,101373.66
2022-09-15T08:33:50.208Z,101373.09
2022-09-15T08:38:53.086Z,101373.06
2022-09-15T08:43:58.449Z,101375.56
2022-09-15T08:49:27.024Z,101382.25
2022-09-15T08:54:40.851Z,101376.88
2022-09-15T08:59:43.795Z,101382.41
2022-09-15T09:05:19.102Z,101367.25
2022-09-15T09:10:30.602Z,101386.19
2022-09-15T09:15:48.246Z,101386.56
2022-09-15T09:21:04.977Z,101394.41
2022-09-15T09:26:10.688Z,101402.75
2022-09-15T09:31:21.071Z,101392.63
2022-09-15T09:36:24.078Z,101395.91
2022-09-15T09:41:35.935Z,101388.31
2022-09-15T09:46:39.225Z,101391.22
2022-09-15T09:52:02.636Z,101391.38
2022-09-15T09:57:14.612Z,101404.38
2022-09-15T10:02:18.739Z,101401.03
2022-09-15T10:07:25.991Z,101404.16
2022-09-15T10:12:30.918Z,101411.09
2022-09-15T10:17:36.491Z,101404.91
2022-09-15T10:22:40.631Z,101396.91
2022-09-15T10:27:43.857Z,101408.88
2022-09-15T10:32:47.277Z,101402.72
2022-09-15T10:38:00.213Z,101405.03
2022-09-15T10:43:28.969Z,101398.97
2022-09-15T10:49:33.249Z,101403.31
2022-09-15T10:54:54.842Z,101407.38
2022-09-15T11:00:11.179Z,101402.75
2022-09-15T11:05:24.258Z,101406.03
2022-09-15T11:10:38.567Z,101405.09
2022-09-15T11:16:05.659Z,101409.16
2022-09-15T11:21:21.943Z,101393.88
2022-09-15T11:26:37.895Z,101408.38
2022-09-15T11:31:43.305Z,101412.97
2022-09-15T11:36:55.989Z,101414.97
2022-09-15T11:42:05.178Z,101418.81
2022-09-15T11:47:17.015Z,101410.66
2022-09-15T11:52:41.645Z,101421.38
2022-09-15T11:57:54.134Z,101436.09
2022-09-15T12:03:32.237Z,101435.22
2022-09-15T12:08:41.848Z,101437.69
2022-09-15T12:13:45.959Z,101435.97
2022-09-15T12:19:12.794Z,101441.66
2022-09-15T12:24:15.517Z,101441.34
2022-09-15T12:29:27.058Z,101436.84
2022-09-15T12:34:33.490Z,101445.47
2022-09-15T12:39:43.596Z,101448.72
2022-09-15T12:44:58.390Z,101449.25
2022-09-15T12:50:09.470Z,101446.25
2022-09-15T12:55:24.550Z,101451.84
2022-09-15T13:00:29.142Z,101456.50
2022-09-15T13:05:46.488Z,101454.44
2022-09-15T13:11:11.401Z,101459.19
2022-09-15T13:16:54.274Z,101459.84
2022-09-15T13:22:12.288Z,101460.69
2022-09-15T13:27:19.104Z,101460.47
2022-09-15T13:32:40.178Z,101445.22
2022-09-15T13:43:46.800Z,101458.50
2022-09-15T13:49:13.512Z,101458.34
2022-09-15T13:54:19.486Z,101474.63
2022-09-15T13:59:25.899Z,101470.50
2022-09-15T14:04:31.440Z,101443.28
2022-09-15T14:09:40.902Z,101469.81
2022-09-15T14:14:51.175Z,101468.88
2022-09-15T14:19:56.498Z,101469.22
2022-09-15T14:25:01.269Z,101472.78
2022-09-15T14:30:09.175Z,101465.41
2022-09-15T14:35:19.857Z,101480.09
2022-09-15T14:40:35.479Z,101481.22
2022-09-15T14:51:19.089Z,101485.19
2022-09-15T14:56:25.375Z,101487.66
2022-09-15T15:01:44.043Z,101489.38
2022-09-15T15:07:05.249Z,101493.66
2022-09-15T15:12:19.618Z,101502.53
2022-09-15T15:17:34.682Z,101500.44
2022-09-15T15:22:38.889Z,101497.66
2022-09-15T15:27:42.496Z,101511.31
2022-09-15T15:32:45.439Z,101503.34
2022-09-15T15:37:48.399Z,101501.06
2022-09-15T15:43:01.583Z,101507.56
2022-09-15T15:48:04.796Z,101501.16
2022-09-15T15:53:07.454Z,101510.81
2022-09-15T15:58:12.200Z,101506.25
2022-09-15T16:03:15.625Z,101507.47
2022-09-15T16:08:31.532Z,101493.25
2022-09-15T16:13:34.367Z,101500.44
2022-09-15T16:18:36.998Z,101507.59
2022-09-15T16:23:39.810Z,101503.94
2022-09-15T16:28:42.766Z,101500.94
2022-09-15T16:33:46.195Z,101503.78
2022-09-15T16:38:49.050Z,101496.88
2022-09-15T16:43:51.923Z,101470.81
2022-09-15T16:48:55.472Z,101489.75
2022-09-15T16:53:58.304Z,101503.19
2022-09-15T16:59:01.267Z,101494.25
2022-09-15T17:04:10.310Z,101502.91
2022-09-15T17:09:12.956Z,101502.53
2022-09-15T17:14:17.328Z,101505.66
2022-09-15T17:19:20.160Z,101496.44
2022-09-15T17:24:22.852Z,101489.19
2022-09-15T17:29:25.541Z,101497.59
2022-09-15T17:34:28.276Z,101494.09
2022-09-15T17:39:31.412Z,101493.63
2022-09-15T17:44:37.051Z,101495.59
2022-09-15T17:49:40.522Z,101488.09
2022-09-15T17:54:43.297Z,101490.94
2022-09-15T17:59:45.984Z,101488.59
2022-09-15T18:04:48.969Z,101489.06
2022-09-15T18:09:51.772Z,101483.72
2022-09-15T18:14:54.361Z,101479.91
2022-09-15T18:19:57.021Z,101482.66
2022-09-15T18:24:59.823Z,101482.56
2022-09-15T18:30:02.618Z,101470.94
2022-09-15T18:35:07.851Z,101478.94
2022-09-15T18:40:12.835Z,101477.84
2022-09-15T18:45:17.040Z,101482.56
2022-09-15T18:50:21.815Z,101472.38
2022-09-15T18:55:25.220Z,101487.28
2022-09-15T19:00:29.054Z,101484.47
2022-09-15T19:05:33.005Z,101484.97
2022-09-15T19:10:35.792Z,101478.53
2022-09-15T19:15:41.693Z,101476.16
2022-09-15T19:20:44.411Z,101478.69
2022-09-15T19:25:47.086Z,101480.47
2022-09-15T19:30:50.045Z,101475.00
2022-09-15T19:36:10.553Z,101478.69
2022-09-15T19:41:15.611Z,101476.53
2022-09-15T19:46:21.103Z,101478.97
2022-09-15T19:51:24.486Z,101469.34
2022-09-15T19:56:28.264Z,101472.22
2022-09-15T20:01:33.004Z,101473.94
2022-09-15T20:06:36.576Z,101471.00
2022-09-15T20:11:39.368Z,101471.44
2022-09-15T20:16:42.286Z,101460.72
2022-09-15T20:21:50.233Z,101470.66
2022-09-15T20:26:54.000Z,101465.16
2022-09-15T20:31:56.757Z,101466.16
2022-09-15T20:36:59.450Z,101462.53
2022-09-15T20:42:02.210Z,101472.84
2022-09-15T20:47:05.129Z,101461.16
2022-09-15T20:52:07.852Z,101469.53
2022-09-15T20:57:10.624Z,101475.72
2022-09-15T21:02:13.533Z,101456.97
2022-09-15T21:07:16.610Z,101468.22
2022-09-15T21:12:19.392Z,101467.25
2022-09-15T21:17:23.491Z,101477.13
2022-09-15T21:22:26.328Z,101470.03
2022-09-15T21:27:29.193Z,101466.03
2022-09-15T21:32:33.470Z,101453.66
2022-09-15T21:37:36.208Z,101467.41
2022-09-15T21:42:39.718Z,101468.16
2022-09-15T21:47:42.585Z,101465.97
2022-09-15T21:52:45.241Z,101455.66
2022-09-15T21:57:47.935Z,101461.59
2022-09-15T22:02:53.567Z,101439.22
2022-09-15T22:07:56.329Z,101455.44
2022-09-15T22:12:59.078Z,101470.59
2022-09-15T22:18:02.414Z,101447.31
2022-09-15T22:23:05.687Z,101471.66
2022-09-15T22:28:08.408Z,101475.19
2022-09-15T22:33:11.106Z,101470.13
2022-09-15T22:38:13.884Z,101476.72
2022-09-15T22:43:16.651Z,101490.13
2022-09-15T22:48:19.334Z,101471.56
2022-09-15T22:53:23.789Z,101481.31
2022-09-15T22:58:26.439Z,101479.53
2022-09-15T23:03:29.191Z,101490.06
2022-09-15T23:08:32.651Z,101476.88
2022-09-15T23:13:36.121Z,101493.91
2022-09-15T23:18:38.903Z,101499.97
2022-09-15T23:23:43.596Z,101497.50
2022-09-15T23:28:46.778Z,101495.53
2022-09-15T23:33:50.020Z,101494.59
2022-09-15T23:38:52.975Z,101500.81
2022-09-15T23:43:55.987Z,101511.56
2022-09-15T23:48:58.768Z,101502.44
2022-09-15T23:54:02.559Z,101510.88
2022-09-15T23:59:05.267Z,101504.84
